Aeroporto :
LOGIN :

Iscrizione | Disclaimer

   EN    FR    IT 

 










Sommario :    VFR   VFR Marginale   IFR   IFR Intensivo   IFR Molto Intensivo
Visibilità : 
Base nubi : 
>= 8 km
>= 3000ft
5 / 8 km
1000 / 3000 ft
1500m / 5 km
500 / 1000 ft
800 / 1500m
200 / 500 ft
< 800m
< 200 ft
Simboli :   Temporali  Nebbia  Neve Forte  Precipitazioni Forti  Vento > 20 kt
SIGMETs :   Varie  Temporali  Ghiacco  Turbolenza  Onda orograficha  Ceneri Vulcaniche







- Altitudine del aeroporto : 1966 ft
- Codice IATA : SGE


EDGS - Siegerland

ULTIMO METAR :
  • 190820Z 28007KT 250V320 9999 FEW013 SCT021 02/M01 Q1025

METARs OBSOLETI :
  • 190750Z 30005KT 260V320 9999 FEW009 SCT019 01/M00 Q1025
  • 190720Z 29004KT 9999 FEW015 01/M00 Q1025
  • 190650Z VRB03KT 9999 FEW015 00/M01 Q1025

TAF TAF EDGS
Valido dal 19 a 09 ore il 19 a 18 ore UTC


190800Z 1909/1918 32006KT 9999 SCT030
Nessun NOTAM noto per questo aeroporto.



MetMap, La meteo Aeronautica in un colpo d'occhio ! - Copyright ORBIFLY Dicembre 2007 - Disclaimer

ORBIFLY MET'MAP TEAM :

Programmazione e sviluppo : Alexandra Zaïnal
Concezione e sviluppo : Baudouin d'Aumeries
Co-Programmazione e sviluppo : Marc-Olivier Méhu
Supporto tecnico e logistico : Manuel Goepfert
Aiuto per la traduzione : Arnaldo La Scala

Contatto : metmap@orbifly.com




FONTI E CREDITI :

   NOAA